Time;durP1;ratioP1;P1;durP2;ratioP2;P2;SDS_P1;SDS_P2;PMS_P1;PMS_P2;Temp;Humidity;BMP_temperature;BMP_pressure;BME280_temperature;BME280_humidity;BME280_pressure;Samples;Min_cycle;Max_cycle;Signal;HPM_P1;HPM_P2
2021/03/06 00:02:05;;;;;;;12.30;7.63;;;-0.10;99.90;;;;;;5014497;28;20034;-71
2021/03/06 00:04:31;;;;;;;14.13;8.73;;;-0.10;99.90;;;;;;5016288;28;20030;-70
2021/03/06 00:06:56;;;;;;;13.25;7.78;;;-0.20;99.90;;;;;;5018492;28;20472;-70
2021/03/06 00:09:22;;;;;;;13.20;7.90;;;-0.30;99.90;;;;;;5016114;28;20034;-70
2021/03/06 00:11:47;;;;;;;13.05;7.43;;;-0.30;99.90;;;;;;5014372;28;20026;-71
2021/03/06 00:14:13;;;;;;;11.70;6.93;;;-0.30;99.90;;;;;;5012241;28;20029;-70
2021/03/06 00:16:39;;;;;;;10.90;6.38;;;-0.20;99.90;;;;;;5012702;28;20057;-68
2021/03/06 00:19:04;;;;;;;10.38;7.00;;;-0.20;99.90;;;;;;5013136;28;20097;-69
2021/03/06 00:21:30;;;;;;;10.93;6.82;;;-0.20;99.90;;;;;;5013215;28;20029;-71
2021/03/06 00:23:56;;;;;;;11.20;6.75;;;-0.20;99.90;;;;;;5011898;28;20053;-69
2021/03/06 00:26:21;;;;;;;10.27;6.60;;;-0.20;99.90;;;;;;5012974;28;20045;-71
2021/03/06 00:28:47;;;;;;;9.02;6.25;;;-0.20;99.90;;;;;;5012771;28;20033;-70
2021/03/06 00:31:13;;;;;;;12.07;7.45;;;-0.20;99.90;;;;;;5012733;28;20117;-69
2021/03/06 00:33:39;;;;;;;11.32;6.93;;;-0.30;99.90;;;;;;5012386;28;20098;-71
2021/03/06 00:36:05;;;;;;;11.65;7.00;;;-0.20;99.90;;;;;;5012439;28;20041;-69
2021/03/06 00:38:30;;;;;;;15.13;7.53;;;-0.30;99.90;;;;;;5013227;28;20030;-70
2021/03/06 00:40:56;;;;;;;11.32;7.82;;;-0.30;99.90;;;;;;5012959;28;20029;-70
2021/03/06 00:43:22;;;;;;;12.25;7.72;;;-0.30;99.90;;;;;;5012321;28;20029;-69
2021/03/06 00:45:47;;;;;;;10.20;7.05;;;-0.40;99.90;;;;;;5012455;28;20026;-70
2021/03/06 00:48:13;;;;;;;13.05;8.43;;;-0.40;99.90;;;;;;5012745;28;20366;-71
2021/03/06 00:50:38;;;;;;;10.60;7.07;;;-0.50;99.90;;;;;;5012842;28;20033;-69
2021/03/06 00:53:04;;;;;;;12.40;6.32;;;-0.40;99.90;;;;;;5012116;28;20029;-69
2021/03/06 00:55:30;;;;;;;10.30;6.95;;;-0.40;99.90;;;;;;5012356;28;20026;-70
2021/03/06 00:57:56;;;;;;;11.40;6.85;;;-0.40;99.90;;;;;;5012759;28;20068;-69
2021/03/06 01:00:22;;;;;;;10.20;6.97;;;-0.40;99.90;;;;;;5012172;28;20037;-70
2021/03/06 01:02:48;;;;;;;11.55;7.50;;;-0.50;99.90;;;;;;5012020;28;20068;-70
2021/03/06 01:05:15;;;;;;;11.70;6.82;;;-0.50;99.90;;;;;;5012608;28;20050;-68
2021/03/06 01:07:41;;;;;;;9.48;6.05;;;-0.50;99.90;;;;;;5012917;28;20101;-69
2021/03/06 01:10:14;;;;;;;13.20;6.90;;;-0.70;99.90;;;;;;5028606;28;20022;-69
2021/03/06 01:12:39;;;;;;;11.07;7.60;;;-0.70;99.90;;;;;;5035872;28;20076;-71
2021/03/06 01:15:06;;;;;;;11.65;7.38;;;-0.70;99.90;;;;;;5027156;28;20042;-69
2021/03/06 01:17:32;;;;;;;10.65;7.28;;;-0.80;99.90;;;;;;5014680;28;20033;-70
2021/03/06 01:19:57;;;;;;;8.82;7.15;;;-0.80;99.90;;;;;;5029284;28;20022;-70
2021/03/06 01:22:23;;;;;;;10.73;7.35;;;-0.90;99.90;;;;;;5023534;28;20072;-69
2021/03/06 01:24:49;;;;;;;10.40;6.90;;;-0.90;99.90;;;;;;5012281;28;20097;-70
2021/03/06 01:27:14;;;;;;;9.90;6.45;;;-0.90;99.90;;;;;;5014688;28;20041;-69
2021/03/06 01:29:40;;;;;;;11.55;7.00;;;-1.00;99.90;;;;;;5013495;28;20898;-68
2021/03/06 01:32:06;;;;;;;9.07;6.88;;;-1.10;99.90;;;;;;5012449;28;20029;-72
2021/03/06 01:34:32;;;;;;;11.70;6.85;;;-1.10;99.90;;;;;;5011752;28;20026;-70
2021/03/06 01:36:58;;;;;;;7.78;6.28;;;-1.10;99.90;;;;;;5011857;28;20501;-71
2021/03/06 01:39:23;;;;;;;10.70;7.32;;;-1.20;99.90;;;;;;5010542;28;20033;-69
2021/03/06 01:41:50;;;;;;;8.95;7.15;;;-1.20;99.90;;;;;;5012029;28;20022;-69
2021/03/06 01:44:16;;;;;;;8.25;6.97;;;-1.30;99.90;;;;;;5011122;28;20033;-69
2021/03/06 01:46:42;;;;;;;10.18;7.20;;;-1.30;99.90;;;;;;5011595;28;20030;-70
2021/03/06 01:49:08;;;;;;;9.23;7.00;;;-1.40;99.90;;;;;;5011870;28;20105;-69
2021/03/06 01:51:34;;;;;;;11.68;8.25;;;-1.30;99.90;;;;;;5010857;28;20078;-69
2021/03/06 01:54:01;;;;;;;12.18;7.18;;;-1.40;99.90;;;;;;5011292;28;20022;-69
2021/03/06 01:56:28;;;;;;;9.13;7.35;;;-1.50;99.90;;;;;;5011364;28;20037;-71
2021/03/06 01:58:54;;;;;;;12.00;7.75;;;-1.50;99.90;;;;;;5011735;28;20022;-70
2021/03/06 02:01:20;;;;;;;11.05;7.72;;;-1.60;99.90;;;;;;5010177;28;20036;-71
2021/03/06 02:03:46;;;;;;;8.95;7.45;;;-1.60;99.90;;;;;;5011074;28;20417;-69
2021/03/06 02:06:11;;;;;;;11.00;7.45;;;-1.60;99.90;;;;;;5011759;28;20041;-69
2021/03/06 02:08:37;;;;;;;10.75;7.50;;;-1.70;99.90;;;;;;5010359;28;20030;-69
2021/03/06 02:11:03;;;;;;;9.63;7.30;;;-1.70;99.90;;;;;;5011679;28;20046;-70
2021/03/06 02:14:00;;;;;;;9.57;6.78;;;-1.70;99.90;;;;;;5010996;28;20037;-70
2021/03/06 02:16:48;;;;;;;10.77;7.07;;;-1.70;99.90;;;;;;5011666;28;20026;-69
2021/03/06 02:19:32;;;;;;;8.52;7.00;;;-1.80;99.90;;;;;;5011753;28;20065;-69
2021/03/06 02:22:24;;;;;;;10.63;7.47;;;-1.80;99.90;;;;;;5016395;28;20491;-70
2021/03/06 02:25:31;;;;;;;10.65;6.88;;;-1.80;99.90;;;;;;5016930;28;20025;-71
2021/03/06 02:28:11;;;;;;;9.93;7.28;;;-1.80;99.90;;;;;;5017749;28;20102;-70
2021/03/06 02:30:38;;;;;;;9.02;7.28;;;-1.90;99.90;;;;;;5014362;28;20022;-70
2021/03/06 02:33:05;;;;;;;11.98;7.65;;;-1.90;99.90;;;;;;5011967;28;20029;-68
2021/03/06 02:35:34;;;;;;;11.15;8.43;;;-1.90;99.90;;;;;;5011572;28;20117;-69
2021/03/06 02:38:10;;;;;;;10.30;8.35;;;-2.00;99.90;;;;;;5011460;28;20117;-70
2021/03/06 02:40:39;;;;;;;13.50;8.90;;;-2.00;99.90;;;;;;5011610;28;20472;-68
2021/03/06 02:43:08;;;;;;;10.13;6.88;;;-2.10;99.90;;;;;;5012606;28;20080;-70
2021/03/06 02:45:35;;;;;;;10.95;7.88;;;-2.10;99.90;;;;;;5011354;28;20030;-70
2021/03/06 02:48:02;;;;;;;10.90;7.88;;;-2.10;99.90;;;;;;5012236;28;20030;-69
2021/03/06 02:50:27;;;;;;;8.68;6.60;;;-2.10;99.90;;;;;;5014177;28;20026;-72
2021/03/06 02:52:53;;;;;;;9.48;7.32;;;-2.20;99.90;;;;;;5031935;28;20029;-71
2021/03/06 02:55:19;;;;;;;9.07;6.53;;;-2.10;99.90;;;;;;5019071;28;20495;-70
2021/03/06 02:58:03;;;;;;;10.80;6.78;;;-2.20;99.90;;;;;;5024971;28;20030;-71
2021/03/06 03:00:45;;;;;;;10.95;6.85;;;-2.20;99.90;;;;;;5029002;28;20499;-71
2021/03/06 03:03:48;;;;;;;9.43;6.85;;;-2.20;99.90;;;;;;5033952;28;20370;-71
2021/03/06 03:06:21;;;;;;;8.63;6.88;;;-2.20;99.90;;;;;;5021642;28;20403;-69
2021/03/06 03:09:00;;;;;;;8.60;6.97;;;-2.30;99.90;;;;;;5015021;28;20026;-70
2021/03/06 03:11:31;;;;;;;8.95;6.95;;;-2.30;99.90;;;;;;5013722;28;20029;-70
2021/03/06 03:13:59;;;;;;;11.57;7.18;;;-2.30;99.90;;;;;;5014379;28;20827;-71
2021/03/06 03:16:36;;;;;;;7.80;6.40;;;-2.30;99.90;;;;;;5014490;28;20157;-70
2021/03/06 03:19:12;;;;;;;7.65;6.28;;;-2.30;99.90;;;;;;5014881;28;20112;-69
2021/03/06 03:21:47;;;;;;;9.32;6.72;;;-2.40;99.90;;;;;;5014387;28;20041;-69
2021/03/06 03:24:17;;;;;;;7.13;6.13;;;-2.40;99.90;;;;;;5013624;28;20029;-70
2021/03/06 03:26:43;;;;;;;10.55;7.20;;;-2.40;99.90;;;;;;5014442;28;20112;-71
2021/03/06 03:29:12;;;;;;;7.75;6.40;;;-2.40;99.90;;;;;;5014205;28;20022;-70
2021/03/06 03:31:39;;;;;;;8.60;6.47;;;-2.50;99.90;;;;;;5013152;28;20029;-69
2021/03/06 03:34:07;;;;;;;9.38;7.25;;;-2.50;99.90;;;;;;5013955;28;20385;-69
2021/03/06 03:36:34;;;;;;;12.50;6.90;;;-2.50;99.90;;;;;;5013880;28;20085;-70
2021/03/06 03:39:00;;;;;;;8.55;6.85;;;-2.50;99.90;;;;;;5013913;28;20028;-69
2021/03/06 03:41:26;;;;;;;9.43;7.20;;;-2.50;99.90;;;;;;5014700;28;20037;-71
2021/03/06 03:43:53;;;;;;;7.82;6.75;;;-2.60;99.90;;;;;;5013213;28;20030;-70
2021/03/06 03:46:18;;;;;;;9.73;7.45;;;-2.60;99.90;;;;;;5013854;28;20477;-70
2021/03/06 03:48:45;;;;;;;9.35;6.85;;;-2.60;99.90;;;;;;5013924;28;20049;-69
2021/03/06 03:51:12;;;;;;;7.72;6.88;;;-2.70;99.90;;;;;;5012471;28;20417;-68
2021/03/06 03:53:39;;;;;;;8.30;7.15;;;-2.70;99.90;;;;;;5013140;28;20464;-69
2021/03/06 03:56:07;;;;;;;9.95;6.57;;;-2.60;99.90;;;;;;5013570;28;20472;-70
2021/03/06 03:58:33;;;;;;;10.02;6.60;;;-2.60;99.90;;;;;;5013694;28;20428;-69
2021/03/06 04:00:59;;;;;;;8.95;6.53;;;-2.70;99.90;;;;;;5013798;28;20042;-69
2021/03/06 04:03:29;;;;;;;7.85;6.15;;;-2.70;99.90;;;;;;5013357;28;20472;-69
2021/03/06 04:05:56;;;;;;;10.27;7.25;;;-2.70;99.90;;;;;;5013063;28;20117;-71
2021/03/06 04:08:22;;;;;;;10.82;7.03;;;-2.70;99.90;;;;;;5013381;28;20038;-70
2021/03/06 04:10:47;;;;;;;10.50;6.38;;;-2.70;99.90;;;;;;5013377;28;20022;-70
2021/03/06 04:13:13;;;;;;;11.73;7.05;;;-2.70;99.90;;;;;;5012934;28;20076;-72
2021/03/06 04:15:39;;;;;;;9.15;6.63;;;-2.70;99.90;;;;;;5013288;28;20029;-68
2021/03/06 04:18:05;;;;;;;7.63;6.50;;;-2.70;99.90;;;;;;5013683;28;20102;-70
2021/03/06 04:20:31;;;;;;;9.65;7.00;;;-2.70;99.90;;;;;;5013150;28;20381;-70
2021/03/06 04:22:58;;;;;;;7.28;6.22;;;-2.70;99.90;;;;;;5013258;28;20107;-72
2021/03/06 04:25:24;;;;;;;7.70;6.88;;;-2.80;99.90;;;;;;5013318;28;20018;-70
2021/03/06 04:27:49;;;;;;;11.60;7.35;;;-2.90;99.90;;;;;;5014048;28;20032;-69
2021/03/06 04:30:16;;;;;;;11.27;7.53;;;-2.90;99.90;;;;;;5012846;28;20022;-71
2021/03/06 04:32:41;;;;;;;9.65;7.28;;;-2.90;99.90;;;;;;5012503;28;20037;-71
2021/03/06 04:35:08;;;;;;;13.57;7.68;;;-3.00;99.90;;;;;;5013013;28;20018;-70
2021/03/06 04:37:34;;;;;;;12.23;7.18;;;-3.00;99.90;;;;;;5013001;28;20495;-69
2021/03/06 04:40:00;;;;;;;12.55;9.40;;;-3.00;99.90;;;;;;5012888;28;20034;-69
2021/03/06 04:42:26;;;;;;;10.57;8.07;;;-3.00;99.90;;;;;;5012969;28;20449;-71
2021/03/06 04:44:52;;;;;;;9.60;7.47;;;-3.10;99.90;;;;;;5012157;28;20026;-68
2021/03/06 04:47:18;;;;;;;9.93;7.95;;;-3.10;99.90;;;;;;5012891;28;20103;-71
2021/03/06 04:49:44;;;;;;;10.57;7.80;;;-3.10;99.90;;;;;;5012590;28;20465;-70
2021/03/06 04:52:09;;;;;;;12.48;8.13;;;-3.10;99.90;;;;;;5011680;28;20025;-69
2021/03/06 04:54:35;;;;;;;13.82;7.85;;;-3.10;99.90;;;;;;5011984;28;20017;-71
2021/03/06 04:57:01;;;;;;;9.55;7.22;;;-3.10;99.90;;;;;;5012538;28;20425;-70
2021/03/06 04:59:27;;;;;;;12.32;7.53;;;-3.10;99.90;;;;;;5011955;28;20036;-68
2021/03/06 05:01:52;;;;;;;10.57;7.38;;;-3.10;99.90;;;;;;5012393;28;20112;-68
2021/03/06 05:04:18;;;;;;;11.90;7.85;;;-3.10;99.90;;;;;;5011934;28;20105;-70
2021/03/06 05:06:45;;;;;;;21.85;8.85;;;-3.20;99.90;;;;;;5016789;28;20060;-71
2021/03/06 05:09:11;;;;;;;9.73;7.75;;;-3.20;99.90;;;;;;5012910;28;20149;-70
2021/03/06 05:11:37;;;;;;;12.85;8.88;;;-3.20;99.90;;;;;;5012781;28;20105;-69
2021/03/06 05:14:03;;;;;;;12.27;8.45;;;-3.20;99.90;;;;;;5012534;28;20118;-69
2021/03/06 05:16:29;;;;;;;10.60;8.20;;;-3.30;99.90;;;;;;5014441;28;20097;-69
2021/03/06 05:18:54;;;;;;;12.32;7.90;;;-3.20;99.90;;;;;;5025203;28;20128;-69
2021/03/06 05:21:20;;;;;;;11.93;7.88;;;-3.30;99.90;;;;;;5013799;28;20029;-71
2021/03/06 05:23:46;;;;;;;9.50;7.35;;;-3.30;99.90;;;;;;5004495;28;20041;-70
2021/03/06 05:26:11;;;;;;;14.23;8.85;;;-3.30;99.90;;;;;;4995334;28;20559;-71
2021/03/06 05:28:38;;;;;;;13.15;8.35;;;-3.30;99.90;;;;;;5026753;28;20022;-69
2021/03/06 05:31:03;;;;;;;13.20;8.63;;;-3.40;99.90;;;;;;5022016;28;20088;-69
2021/03/06 05:33:32;;;;;;;12.50;8.45;;;-3.40;99.90;;;;;;5013151;28;20022;-71
2021/03/06 05:35:58;;;;;;;10.73;8.55;;;-3.40;99.90;;;;;;5012846;28;20033;-69
2021/03/06 05:38:23;;;;;;;10.50;8.18;;;-3.50;99.90;;;;;;5014046;28;20396;-70
2021/03/06 05:40:49;;;;;;;13.52;8.60;;;-3.40;99.90;;;;;;5011977;28;20477;-71
2021/03/06 05:43:17;;;;;;;13.65;7.78;;;-3.40;99.90;;;;;;5013719;28;20037;-69
2021/03/06 05:45:47;;;;;;;10.38;7.85;;;-3.40;99.90;;;;;;5013215;28;20160;-71
2021/03/06 05:48:13;;;;;;;14.23;8.50;;;-3.40;99.90;;;;;;5013626;28;20037;-70
2021/03/06 05:50:39;;;;;;;13.68;9.00;;;-3.40;99.90;;;;;;5011248;28;20086;-69
2021/03/06 05:53:16;;;;;;;13.73;8.75;;;-3.40;99.90;;;;;;5011179;28;20060;-70
2021/03/06 05:55:55;;;;;;;10.90;7.97;;;-3.40;99.90;;;;;;5011808;28;20550;-70
2021/03/06 05:58:22;;;;;;;12.38;8.57;;;-3.40;99.90;;;;;;5012010;28;20034;-70
2021/03/06 06:00:48;;;;;;;13.45;8.75;;;-3.40;99.90;;;;;;5011240;28;20499;-71
2021/03/06 06:03:17;;;;;;;15.82;9.90;;;-3.40;99.90;;;;;;5011155;28;20160;-70
2021/03/06 06:05:45;;;;;;;21.48;11.10;;;-3.40;99.90;;;;;;5011548;28;20442;-69
2021/03/06 06:08:11;;;;;;;34.67;16.00;;;-3.40;99.90;;;;;;5011650;28;20038;-69
2021/03/06 06:10:37;;;;;;;45.22;20.92;;;-3.40;99.90;;;;;;5011641;28;20033;-71
2021/03/06 06:13:03;;;;;;;35.97;16.25;;;-3.30;99.90;;;;;;5010733;28;20026;-70
2021/03/06 06:15:28;;;;;;;30.55;15.10;;;-3.30;99.90;;;;;;4989223;28;20117;-72
2021/03/06 06:17:55;;;;;;;28.52;13.52;;;-3.20;99.90;;;;;;4991501;28;20493;-71
2021/03/06 06:20:24;;;;;;;27.25;15.30;;;-3.10;99.90;;;;;;4991179;28;20028;-72
2021/03/06 06:23:09;;;;;;;22.63;14.10;;;-3.10;99.90;;;;;;4991017;28;20024;-72
2021/03/06 06:25:35;;;;;;;23.58;14.30;;;-3.00;99.90;;;;;;4990963;28;20564;-72
2021/03/06 06:28:02;;;;;;;17.48;11.90;;;-3.00;99.90;;;;;;4994958;28;20030;-72
2021/03/06 06:30:27;;;;;;;15.00;11.18;;;-2.90;99.90;;;;;;5010720;28;20042;-74
2021/03/06 06:32:53;;;;;;;15.57;10.95;;;-2.90;99.90;;;;;;5003819;28;20022;-73
2021/03/06 06:35:19;;;;;;;14.88;9.85;;;-2.80;99.90;;;;;;4995698;28;20026;-73
2021/03/06 06:37:56;;;;;;;14.55;10.57;;;-2.70;99.90;;;;;;4995066;28;20389;-73
2021/03/06 06:40:24;;;;;;;13.43;9.18;;;-2.70;99.90;;;;;;5009099;28;20025;-73
2021/03/06 06:42:50;;;;;;;14.93;8.63;;;-2.60;99.90;;;;;;5014604;28;20040;-73
2021/03/06 06:45:16;;;;;;;14.60;9.05;;;-2.60;99.90;;;;;;5014917;28;20034;-73
2021/03/06 06:47:44;;;;;;;13.02;8.80;;;-2.50;99.90;;;;;;5013622;28;20026;-73
2021/03/06 06:50:11;;;;;;;12.35;8.38;;;-2.40;99.90;;;;;;5015075;28;20018;-74
2021/03/06 06:52:41;;;;;;;13.48;8.07;;;-2.30;99.90;;;;;;5015059;28;20419;-70
2021/03/06 06:55:09;;;;;;;12.27;8.60;;;-2.20;99.90;;;;;;5013243;28;20485;-72
2021/03/06 06:57:52;;;;;;;13.40;8.82;;;-2.20;99.90;;;;;;5013154;28;20076;-73
2021/03/06 07:00:19;;;;;;;12.73;7.68;;;-2.10;99.90;;;;;;5013425;28;20022;-72
2021/03/06 07:02:56;;;;;;;12.98;8.75;;;-2.10;99.90;;;;;;5013531;28;20109;-72
2021/03/06 07:05:32;;;;;;;13.50;8.45;;;-1.90;99.90;;;;;;5007840;28;20053;-74
2021/03/06 07:08:25;;;;;;;11.32;7.55;;;-1.80;99.90;;;;;;4996748;28;20091;-74
2021/03/06 07:10:51;;;;;;;11.88;7.47;;;-1.60;99.90;;;;;;4991448;28;20061;-75
2021/03/06 07:13:18;;;;;;;14.40;7.78;;;-1.40;99.90;;;;;;5002906;28;20022;-75
2021/03/06 07:15:56;;;;;;;11.50;6.55;;;-1.30;99.90;;;;;;5000474;28;20551;-72
2021/03/06 07:18:22;;;;;;;11.48;7.40;;;-1.10;99.90;;;;;;4973863;28;20038;-74
2021/03/06 07:20:49;;;;;;;10.77;7.47;;;-0.90;99.90;;;;;;4975217;28;20027;-73
2021/03/06 07:23:19;;;;;;;10.70;7.90;;;-0.80;99.90;;;;;;4992280;28;20145;-69
2021/03/06 07:25:48;;;;;;;11.57;8.43;;;-0.70;99.90;;;;;;4993926;28;20448;-68
2021/03/06 07:28:14;;;;;;;11.93;6.82;;;-0.40;99.90;;;;;;4993926;28;20042;-69
2021/03/06 07:30:39;;;;;;;13.93;7.28;;;0.10;99.90;;;;;;4994351;28;20026;-70
2021/03/06 07:33:07;;;;;;;10.98;6.60;;;0.40;99.90;;;;;;4995081;28;20030;-70
2021/03/06 07:35:38;;;;;;;9.88;7.05;;;0.50;99.90;;;;;;4994848;28;20118;-70
2021/03/06 07:38:07;;;;;;;10.23;7.68;;;0.50;99.90;;;;;;5008590;28;20026;-69
2021/03/06 07:40:37;;;;;;;9.98;7.03;;;0.50;99.90;;;;;;4995599;28;20879;-72
2021/03/06 07:43:29;;;;;;;10.27;7.63;;;0.70;99.90;;;;;;4994525;28;20566;-73
2021/03/06 07:45:57;;;;;;;10.50;8.43;;;0.80;99.90;;;;;;4995168;28;20030;-74
2021/03/06 07:48:26;;;;;;;11.85;8.77;;;0.90;99.90;;;;;;4992012;28;20026;-76
2021/03/06 07:50:53;;;;;;;13.90;9.10;;;1.10;99.90;;;;;;4994037;28;20556;-73
2021/03/06 07:53:19;;;;;;;15.20;9.75;;;1.10;99.90;;;;;;4993464;28;20050;-72
2021/03/06 07:55:46;;;;;;;17.35;10.25;;;1.20;99.90;;;;;;4994034;28;20030;-73
2021/03/06 07:58:17;;;;;;;14.27;9.63;;;1.50;99.90;;;;;;4995283;28;20141;-76
2021/03/06 08:00:57;;;;;;;14.48;9.73;;;1.50;99.90;;;;;;5012982;28;20036;-73
2021/03/06 08:03:22;;;;;;;14.77;10.60;;;1.80;99.90;;;;;;5015993;28;20033;-76
2021/03/06 08:05:49;;;;;;;17.98;10.38;;;1.80;99.90;;;;;;5015484;28;20026;-77
2021/03/06 08:08:36;;;;;;;13.60;9.30;;;1.90;99.90;;;;;;5015881;28;20033;-72
2021/03/06 08:11:15;;;;;;;16.90;10.95;;;2.10;99.90;;;;;;4977818;28;20031;-74
2021/03/06 08:13:54;;;;;;;15.82;10.05;;;2.20;99.90;;;;;;4979424;28;20027;-74
2021/03/06 08:16:23;;;;;;;12.65;9.38;;;2.20;99.90;;;;;;4974470;28;20027;-73
2021/03/06 08:18:55;;;;;;;14.93;10.90;;;2.30;99.90;;;;;;4994750;28;20031;-74
2021/03/06 08:21:43;;;;;;;14.45;9.80;;;2.40;99.90;;;;;;4994300;28;20058;-77
2021/03/06 08:24:21;;;;;;;13.77;9.13;;;2.60;99.90;;;;;;4997724;28;20034;-73
2021/03/06 08:27:02;;;;;;;12.60;9.02;;;3.10;99.90;;;;;;5013325;28;20873;-73
2021/03/06 08:29:28;;;;;;;11.15;9.70;;;4.70;99.90;;;;;;5012761;28;20034;-71
2021/03/06 08:31:58;;;;;;;10.30;8.55;;;8.00;99.00;;;;;;5013644;28;20106;-68
2021/03/06 08:34:28;;;;;;;10.55;8.27;;;9.80;93.00;;;;;;5012480;28;20030;-69
2021/03/06 08:37:12;;;;;;;9.10;7.95;;;11.60;83.40;;;;;;5013103;28;20033;-68
2021/03/06 08:39:40;;;;;;;11.75;8.48;;;13.60;68.80;;;;;;5011634;28;20034;-68
2021/03/06 08:42:05;;;;;;;9.00;8.10;;;14.00;64.40;;;;;;5012771;28;20080;-69
2021/03/06 08:44:31;;;;;;;8.65;7.82;;;15.00;60.10;;;;;;5011972;28;20034;-68
2021/03/06 08:46:57;;;;;;;8.40;7.60;;;15.20;56.40;;;;;;5012456;28;20049;-68
2021/03/06 08:49:24;;;;;;;8.45;7.63;;;15.50;55.30;;;;;;5012538;28;20030;-68
2021/03/06 08:51:53;;;;;;;10.18;7.85;;;15.60;56.00;;;;;;5012316;28;20544;-68
2021/03/06 08:54:21;;;;;;;8.55;6.72;;;16.80;51.90;;;;;;5010711;28;20025;-69
2021/03/06 08:56:47;;;;;;;8.13;7.32;;;16.00;53.40;;;;;;5011692;28;20018;-68
2021/03/06 08:59:12;;;;;;;8.18;7.47;;;15.70;52.40;;;;;;5012285;28;20079;-69
2021/03/06 09:01:39;;;;;;;8.35;7.50;;;16.90;51.10;;;;;;5011165;28;20021;-68
2021/03/06 09:04:05;;;;;;;7.75;7.00;;;17.30;48.90;;;;;;5011885;28;20030;-68
2021/03/06 09:06:38;;;;;;;7.88;7.18;;;16.60;51.10;;;;;;5012008;28;20480;-70
2021/03/06 09:09:08;;;;;;;9.00;6.60;;;16.50;49.70;;;;;;5008209;28;20141;-70
2021/03/06 09:11:34;;;;;;;7.97;6.55;;;17.10;49.70;;;;;;4993551;28;20026;-72
2021/03/06 09:13:59;;;;;;;6.97;6.38;;;17.40;48.40;;;;;;4993463;28;20026;-70
2021/03/06 09:16:25;;;;;;;8.15;7.30;;;16.50;49.30;;;;;;4993084;28;20038;-69
2021/03/06 09:18:51;;;;;;;13.38;10.65;;;17.40;49.60;;;;;;4995279;28;20030;-71
2021/03/06 09:21:23;;;;;;;22.30;16.30;;;17.40;48.20;;;;;;5011531;28;20026;-69
2021/03/06 09:23:52;;;;;;;27.95;18.23;;;19.90;47.20;;;;;;5010318;28;20026;-70
2021/03/06 09:26:20;;;;;;;22.42;17.30;;;19.20;46.30;;;;;;5010394;28;20030;-69
2021/03/06 09:28:48;;;;;;;7.00;6.40;;;19.40;46.40;;;;;;5011873;28;20084;-70
2021/03/06 09:31:33;;;;;;;7.00;6.40;;;20.70;42.40;;;;;;5011605;28;20040;-68
2021/03/06 09:33:59;;;;;;;6.55;5.97;;;20.40;39.80;;;;;;5011189;28;20072;-71
2021/03/06 09:36:30;;;;;;;7.70;7.00;;;19.80;43.10;;;;;;5011535;28;20022;-70
2021/03/06 09:39:00;;;;;;;6.68;6.07;;;19.90;41.40;;;;;;5011912;28;20500;-68
2021/03/06 09:41:38;;;;;;;5.90;5.50;;;20.10;42.40;;;;;;5010722;28;20034;-71
2021/03/06 09:44:06;;;;;;;6.13;5.63;;;19.80;40.50;;;;;;5011775;28;20503;-69
2021/03/06 09:46:33;;;;;;;6.05;5.55;;;19.50;41.70;;;;;;5029808;28;20057;-68
2021/03/06 09:49:02;;;;;;;6.85;6.25;;;19.60;40.80;;;;;;5030795;28;20049;-69
2021/03/06 09:51:50;;;;;;;6.15;5.65;;;18.90;42.00;;;;;;5030446;28;20018;-67
2021/03/06 09:54:17;;;;;;;6.00;5.40;;;18.90;41.70;;;;;;5011354;28;20018;-68
2021/03/06 09:56:58;;;;;;;7.55;5.78;;;19.20;41.90;;;;;;5017364;28;20022;-70
2021/03/06 09:59:26;;;;;;;5.65;5.15;;;19.80;40.80;;;;;;5023427;28;20085;-69
2021/03/06 10:01:52;;;;;;;5.15;4.75;;;18.90;40.10;;;;;;5017573;28;20038;-68
2021/03/06 10:04:20;;;;;;;5.35;4.85;;;19.50;40.70;;;;;;4990999;28;20038;-68
2021/03/06 10:06:49;;;;;;;6.10;4.82;;;19.00;38.90;;;;;;4991732;28;20089;-68
2021/03/06 10:09:16;;;;;;;5.55;5.05;;;20.20;39.00;;;;;;5002002;28;20035;-68
2021/03/06 10:11:44;;;;;;;6.28;4.43;;;19.90;37.60;;;;;;4995923;28;20040;-67
2021/03/06 10:14:11;;;;;;;5.68;4.93;;;19.80;38.00;;;;;;4994697;28;20031;-69
2021/03/06 10:16:49;;;;;;;4.70;4.30;;;18.80;39.00;;;;;;4995012;28;20034;-68
2021/03/06 10:19:16;;;;;;;4.57;4.18;;;18.40;40.50;;;;;;4995694;28;20088;-68
2021/03/06 10:21:55;;;;;;;4.72;4.20;;;18.10;41.40;;;;;;5012512;28;20030;-67
2021/03/06 10:24:21;;;;;;;5.07;4.57;;;19.90;37.10;;;;;;5014706;28;20022;-68
2021/03/06 10:26:54;;;;;;;5.55;4.50;;;20.50;35.30;;;;;;5015055;28;20033;-67
2021/03/06 10:29:22;;;;;;;5.55;4.60;;;19.90;37.50;;;;;;4996268;28;20034;-68
2021/03/06 10:31:59;;;;;;;4.90;4.50;;;20.30;37.30;;;;;;4977569;28;20022;-70
2021/03/06 10:34:27;;;;;;;4.82;4.43;;;19.50;37.60;;;;;;4975373;28;20085;-69
2021/03/06 10:37:16;;;;;;;6.53;4.65;;;21.00;36.70;;;;;;4992643;28;20013;-69
2021/03/06 10:39:57;;;;;;;4.00;3.60;;;21.30;35.50;;;;;;5010687;28;20098;-70
2021/03/06 10:42:25;;;;;;;3.35;3.10;;;22.80;32.60;;;;;;4997672;28;20022;-69
2021/03/06 10:44:52;;;;;;;3.75;3.33;;;20.80;33.20;;;;;;5003597;28;20026;-69
2021/03/06 10:47:18;;;;;;;3.97;3.47;;;19.60;35.20;;;;;;5012173;28;20045;-68
2021/03/06 10:49:46;;;;;;;3.88;3.53;;;20.40;35.40;;;;;;5034234;28;20078;-68
2021/03/06 10:52:24;;;;;;;3.60;3.30;;;20.30;34.90;;;;;;5029416;28;20084;-68
2021/03/06 10:54:51;;;;;;;3.60;3.30;;;21.00;36.00;;;;;;5028833;28;20026;-69
2021/03/06 10:57:17;;;;;;;3.10;2.90;;;19.50;34.70;;;;;;5032787;28;20021;-68
2021/03/06 10:59:43;;;;;;;4.10;3.63;;;20.60;36.30;;;;;;5016817;28;20030;-68
2021/03/06 11:02:25;;;;;;;3.83;3.50;;;21.30;34.80;;;;;;5014942;28;20026;-68
2021/03/06 11:04:51;;;;;;;4.05;3.72;;;22.60;33.40;;;;;;5014191;28;20137;-68
2021/03/06 11:07:26;;;;;;;3.88;3.58;;;22.70;32.20;;;;;;5015681;28;20061;-68
2021/03/06 11:09:56;;;;;;;4.25;3.95;;;22.60;33.60;;;;;;5014219;28;20026;-68
2021/03/06 11:12:31;;;;;;;4.80;4.40;;;22.70;32.50;;;;;;5015419;28;20037;-68
2021/03/06 11:15:13;;;;;;;4.28;3.97;;;22.10;33.80;;;;;;5013075;28;20765;-69
2021/03/06 11:17:44;;;;;;;6.15;4.15;;;19.90;36.80;;;;;;5015266;28;20041;-69
2021/03/06 11:20:13;;;;;;;3.90;3.60;;;18.90;37.70;;;;;;5014089;28;20512;-68
2021/03/06 11:22:39;;;;;;;4.88;4.07;;;19.70;39.40;;;;;;5015217;28;20073;-70
2021/03/06 11:25:09;;;;;;;10.82;3.83;;;20.50;35.60;;;;;;5013461;28;20037;-68
2021/03/06 11:27:50;;;;;;;5.95;3.72;;;20.10;36.50;;;;;;5015057;28;20025;-72
2021/03/06 11:30:34;;;;;;;3.80;3.30;;;20.90;35.10;;;;;;4996892;28;20516;-71
2021/03/06 11:33:01;;;;;;;3.90;3.38;;;20.70;35.00;;;;;;4993549;28;20021;-71
2021/03/06 11:35:27;;;;;;;6.55;3.38;;;19.50;36.60;;;;;;4994314;28;20042;-72
2021/03/06 11:37:54;;;;;;;4.68;3.58;;;21.50;35.90;;;;;;5013578;28;20026;-71
2021/03/06 11:40:23;;;;;;;3.10;2.90;;;21.00;36.10;;;;;;5000912;28;20023;-71
2021/03/06 11:42:48;;;;;;;3.25;3.05;;;19.20;35.70;;;;;;4974193;28;20015;-71
2021/03/06 11:45:17;;;;;;;3.72;3.42;;;18.00;36.70;;;;;;4974495;28;20077;-72
2021/03/06 11:47:43;;;;;;;4.10;2.80;;;19.20;39.10;;;;;;5002112;28;20381;-71
2021/03/06 11:50:11;;;;;;;3.47;3.25;;;21.00;36.20;;;;;;5014009;28;20153;-71
2021/03/06 11:52:37;;;;;;;3.85;3.22;;;21.60;33.20;;;;;;5012349;28;20026;-71
2021/03/06 11:55:08;;;;;;;3.90;3.47;;;22.80;32.50;;;;;;5012222;28;20057;-71
2021/03/06 11:57:34;;;;;;;3.63;3.33;;;22.60;33.30;;;;;;5013685;28;20076;-69
2021/03/06 11:59:59;;;;;;;3.80;3.47;;;21.90;33.50;;;;;;5013956;28;20485;-69
2021/03/06 12:02:25;;;;;;;4.43;3.42;;;20.90;33.00;;;;;;5013658;28;20026;-69
2021/03/06 12:04:51;;;;;;;4.40;3.25;;;20.50;35.20;;;;;;5011176;28;20088;-69
2021/03/06 12:07:17;;;;;;;3.28;3.08;;;20.90;33.90;;;;;;5006331;28;20084;-71
2021/03/06 12:09:42;;;;;;;3.25;2.88;;;19.90;34.60;;;;;;4994020;28;20058;-70
2021/03/06 12:12:08;;;;;;;3.50;3.20;;;20.70;35.50;;;;;;4995010;28;20033;-70
2021/03/06 12:14:34;;;;;;;4.53;3.40;;;20.70;34.30;;;;;;5002037;28;20018;-69
2021/03/06 12:17:00;;;;;;;5.95;3.28;;;22.30;33.50;;;;;;4998976;28;20022;-70
2021/03/06 12:19:25;;;;;;;4.72;3.38;;;22.00;34.40;;;;;;4994099;28;20030;-70
2021/03/06 12:21:51;;;;;;;4.07;3.33;;;20.70;34.90;;;;;;5004984;28;20033;-68
2021/03/06 12:24:17;;;;;;;3.85;3.50;;;20.70;34.10;;;;;;5012436;28;20033;-68
2021/03/06 12:26:43;;;;;;;3.92;3.63;;;21.40;36.20;;;;;;5012671;28;20033;-71
2021/03/06 12:29:08;;;;;;;6.80;3.42;;;22.70;32.30;;;;;;5011890;28;20096;-67
2021/03/06 12:31:34;;;;;;;4.47;3.28;;;23.30;31.10;;;;;;5012585;28;20104;-70
2021/03/06 12:34:00;;;;;;;3.80;3.50;;;23.90;31.40;;;;;;5012767;28;20033;-69
2021/03/06 12:36:25;;;;;;;3.40;3.20;;;23.60;30.20;;;;;;5012639;28;20030;-70
2021/03/06 12:38:52;;;;;;;4.47;3.40;;;21.90;31.50;;;;;;5011505;28;20034;-69
2021/03/06 12:41:17;;;;;;;3.63;3.33;;;21.50;33.20;;;;;;5013032;28;20057;-69
2021/03/06 12:43:43;;;;;;;3.42;3.13;;;22.70;31.50;;;;;;5011968;28;20057;-69
2021/03/06 12:46:09;;;;;;;3.50;3.20;;;22.80;31.50;;;;;;5012442;28;20026;-73
2021/03/06 12:48:35;;;;;;;4.00;2.83;;;22.00;31.50;;;;;;5013136;28;20387;-72
2021/03/06 12:51:00;;;;;;;4.03;3.13;;;20.90;32.80;;;;;;5012471;28;20110;-75